createdAt,value
2023-05-14T00:01:09.066Z,17.25
2023-05-14T00:04:12.022Z,15.40
2023-05-14T00:07:15.069Z,14.05
2023-05-14T00:10:19.406Z,17.95
2023-05-14T00:13:22.243Z,18.45
2023-05-14T00:16:25.048Z,16.35
2023-05-14T00:19:27.998Z,14.27
2023-05-14T00:22:30.723Z,17.05
2023-05-14T00:25:33.507Z,16.02
2023-05-14T00:28:36.209Z,15.13
2023-05-14T00:31:39.080Z,14.43
2023-05-14T00:34:41.862Z,15.33
2023-05-14T00:37:44.705Z,16.00
2023-05-14T00:40:51.491Z,18.60
2023-05-14T00:43:54.344Z,14.98
2023-05-14T00:46:57.222Z,13.85
2023-05-14T00:50:00.013Z,15.53
2023-05-14T00:53:03.038Z,14.55
2023-05-14T00:56:08.444Z,15.40
2023-05-14T00:59:11.280Z,13.80
2023-05-14T01:02:14.033Z,13.55
2023-05-14T01:05:17.494Z,16.03
2023-05-14T01:08:29.844Z,14.48
2023-05-14T01:11:42.510Z,12.07
2023-05-14T01:15:12.055Z,16.35
2023-05-14T01:18:18.816Z,14.93
2023-05-14T01:21:43.710Z,14.53
2023-05-14T01:24:46.656Z,14.00
2023-05-14T01:27:55.254Z,14.73
2023-05-14T01:31:09.745Z,16.10
2023-05-14T01:34:14.162Z,16.63
2023-05-14T01:37:18.187Z,13.00
2023-05-14T01:40:21.505Z,14.95
2023-05-14T01:43:24.674Z,15.80
2023-05-14T01:46:32.107Z,16.25
2023-05-14T01:49:37.361Z,13.10
2023-05-14T01:52:40.169Z,13.70
2023-05-14T01:55:42.876Z,12.57
2023-05-14T01:58:45.727Z,14.40
2023-05-14T02:01:48.753Z,15.90
2023-05-14T02:04:52.401Z,15.35
2023-05-14T02:07:55.202Z,13.73
2023-05-14T02:10:58.015Z,14.75
2023-05-14T02:14:01.965Z,12.23
2023-05-14T02:17:04.940Z,13.00
2023-05-14T02:20:08.307Z,12.40
2023-05-14T02:23:11.058Z,14.57
2023-05-14T02:26:13.810Z,14.10
2023-05-14T02:29:16.537Z,11.40
2023-05-14T02:32:19.374Z,14.90
2023-05-14T02:35:22.218Z,13.90
2023-05-14T02:38:26.797Z,12.50
2023-05-14T02:41:32.515Z,14.40
2023-05-14T02:44:35.277Z,14.85
2023-05-14T02:47:38.282Z,11.90
2023-05-14T02:50:41.327Z,14.98
2023-05-14T02:53:44.205Z,14.37
2023-05-14T02:56:47.273Z,20.15
2023-05-14T02:59:49.988Z,14.82
2023-05-14T03:02:53.463Z,15.18
2023-05-14T03:05:56.912Z,16.33
2023-05-14T03:08:59.702Z,14.47
2023-05-14T03:12:02.566Z,12.82
2023-05-14T03:15:05.663Z,15.75
2023-05-14T03:18:08.373Z,17.35
2023-05-14T03:21:11.242Z,14.35
2023-05-14T03:24:14.115Z,16.90
2023-05-14T03:27:16.978Z,14.35
2023-05-14T03:30:19.712Z,14.35
2023-05-14T03:33:23.012Z,14.10
2023-05-14T03:36:25.937Z,16.65
2023-05-14T03:39:28.893Z,18.90
2023-05-14T03:42:32.349Z,16.38
2023-05-14T03:45:35.677Z,15.48
2023-05-14T03:48:38.458Z,14.80
2023-05-14T03:51:41.209Z,15.80
2023-05-14T03:54:44.018Z,15.63
2023-05-14T03:57:47.819Z,16.90
2023-05-14T04:00:50.957Z,16.65
2023-05-14T04:03:53.873Z,15.05
2023-05-14T04:06:57.169Z,16.48
2023-05-14T04:10:04.014Z,14.97
2023-05-14T04:13:07.268Z,14.65
2023-05-14T04:16:11.671Z,13.38
2023-05-14T04:19:14.518Z,12.52
2023-05-14T04:22:17.933Z,13.75
2023-05-14T04:25:20.948Z,13.23
2023-05-14T04:28:23.728Z,16.88
2023-05-14T04:31:26.446Z,13.85
2023-05-14T04:34:29.172Z,13.90
2023-05-14T04:37:33.081Z,15.93
2023-05-14T04:40:35.872Z,12.37
2023-05-14T04:43:38.587Z,14.48
2023-05-14T04:46:41.415Z,14.40
2023-05-14T04:49:44.143Z,12.07
2023-05-14T04:52:46.904Z,13.35
2023-05-14T04:55:49.595Z,13.80
2023-05-14T04:58:52.289Z,13.27
2023-05-14T05:01:55.103Z,11.80
2023-05-14T05:04:57.812Z,13.27
2023-05-14T05:08:00.528Z,12.52
2023-05-14T05:11:03.250Z,12.60
2023-05-14T05:14:06.000Z,15.55
2023-05-14T05:17:08.788Z,10.73
2023-05-14T05:20:12.146Z,12.77
2023-05-14T05:23:14.937Z,15.15
2023-05-14T05:26:17.714Z,10.60
2023-05-14T05:29:20.481Z,11.18
2023-05-14T05:32:23.553Z,10.77
2023-05-14T05:35:26.324Z,12.73
2023-05-14T05:38:29.170Z,10.93
2023-05-14T05:41:31.912Z,9.67
2023-05-14T05:44:34.697Z,8.20
2023-05-14T05:47:37.491Z,9.18
2023-05-14T05:50:40.303Z,9.80
2023-05-14T05:53:43.085Z,11.93
2023-05-14T05:56:45.847Z,10.03
2023-05-14T05:59:48.742Z,9.93
2023-05-14T06:02:51.575Z,11.85
2023-05-14T06:05:54.350Z,7.63
2023-05-14T06:08:57.059Z,10.98
2023-05-14T06:11:59.728Z,13.40
2023-05-14T06:15:02.518Z,10.15
2023-05-14T06:18:05.906Z,10.85
2023-05-14T06:21:08.728Z,11.07
2023-05-14T06:24:11.721Z,21.17
2023-05-14T06:27:14.449Z,22.67
2023-05-14T06:30:17.213Z,22.38
2023-05-14T06:33:23.580Z,15.88
2023-05-14T06:36:26.452Z,11.95
2023-05-14T06:39:29.213Z,11.77
2023-05-14T06:42:31.949Z,12.07
2023-05-14T06:45:34.660Z,8.50
2023-05-14T06:48:37.521Z,10.68
2023-05-14T06:51:40.898Z,10.65
2023-05-14T06:54:43.618Z,10.68
2023-05-14T06:57:46.279Z,13.53
2023-05-14T07:00:48.956Z,9.30
2023-05-14T07:03:51.785Z,9.65
2023-05-14T07:06:54.606Z,11.02
2023-05-14T07:09:57.381Z,11.60
2023-05-14T07:13:00.195Z,11.70
2023-05-14T07:16:02.929Z,9.55
2023-05-14T07:19:05.781Z,9.40
2023-05-14T07:22:08.520Z,8.57
2023-05-14T07:25:11.348Z,8.65
2023-05-14T07:28:14.156Z,8.30
2023-05-14T07:31:16.957Z,9.30
2023-05-14T07:34:19.778Z,9.38
2023-05-14T07:37:23.972Z,11.65
2023-05-14T07:40:27.522Z,12.52
2023-05-14T07:43:30.389Z,10.90
2023-05-14T07:46:33.158Z,11.80
2023-05-14T07:49:36.154Z,12.02
2023-05-14T07:52:39.499Z,10.73
2023-05-14T07:55:42.527Z,13.80
2023-05-14T07:58:45.260Z,10.53
2023-05-14T08:01:48.047Z,12.52
2023-05-14T08:04:50.799Z,12.35
2023-05-14T08:07:53.593Z,13.25
2023-05-14T08:10:56.437Z,15.00
2023-05-14T08:13:59.211Z,16.67
2023-05-14T08:17:02.020Z,15.80
2023-05-14T08:20:06.780Z,16.90
2023-05-14T08:23:10.547Z,18.90
2023-05-14T08:26:13.284Z,13.70
2023-05-14T08:29:16.785Z,16.50
2023-05-14T08:32:23.728Z,15.70
2023-05-14T08:35:26.973Z,17.25
2023-05-14T08:38:29.755Z,15.93
2023-05-14T08:41:32.726Z,16.30
2023-05-14T08:45:02.324Z,15.90
2023-05-14T08:48:09.176Z,15.80
2023-05-14T08:51:12.998Z,13.07
2023-05-14T08:54:19.350Z,13.85
2023-05-14T08:57:25.030Z,16.20
2023-05-14T09:00:27.931Z,19.47
2023-05-14T09:03:31.602Z,12.43
2023-05-14T09:06:38.020Z,13.50
2023-05-14T09:09:41.563Z,17.42
2023-05-14T09:12:44.625Z,13.90
2023-05-14T09:15:50.809Z,13.90
2023-05-14T09:18:53.831Z,17.80
2023-05-14T09:22:01.141Z,20.10
2023-05-14T09:25:09.694Z,16.58
2023-05-14T09:28:12.619Z,17.67
2023-05-14T09:31:15.533Z,17.50
2023-05-14T09:34:25.424Z,20.98
2023-05-14T09:37:28.797Z,17.88
2023-05-14T09:40:31.513Z,17.38
2023-05-14T09:43:34.310Z,20.65
2023-05-14T09:46:37.052Z,18.00
2023-05-14T09:49:40.196Z,15.60
2023-05-14T09:52:44.155Z,16.85
2023-05-14T09:55:47.457Z,13.75
2023-05-14T09:58:50.561Z,16.83
2023-05-14T10:01:54.414Z,16.63
2023-05-14T10:05:02.842Z,17.20
2023-05-14T10:08:20.190Z,17.98
2023-05-14T10:11:27.378Z,18.40
2023-05-14T10:14:39.173Z,17.27
2023-05-14T10:17:47.486Z,19.47
2023-05-14T10:21:01.763Z,20.23
2023-05-14T10:24:06.081Z,20.75
2023-05-14T10:27:09.198Z,21.65
2023-05-14T10:30:15.291Z,20.40
2023-05-14T10:33:18.916Z,19.50
2023-05-14T10:36:22.512Z,22.05
2023-05-14T10:40:00.408Z,23.13
2023-05-14T10:43:04.555Z,26.25
2023-05-14T10:46:10.069Z,24.77
2023-05-14T10:49:12.908Z,21.93
2023-05-14T10:52:20.345Z,21.90
2023-05-14T10:55:23.172Z,26.48
2023-05-14T10:58:26.220Z,21.33
2023-05-14T11:01:29.008Z,22.98
2023-05-14T11:04:31.875Z,23.80
2023-05-14T11:07:36.831Z,26.25
2023-05-14T11:10:39.853Z,26.42
2023-05-14T11:13:43.065Z,23.08
2023-05-14T11:16:47.448Z,19.95
2023-05-14T11:19:51.234Z,26.00
2023-05-14T11:22:54.111Z,21.70
2023-05-14T11:25:57.147Z,23.48
2023-05-14T11:29:00.206Z,25.77
2023-05-14T11:32:06.123Z,22.73
2023-05-14T11:35:09.333Z,21.10
2023-05-14T11:38:16.635Z,19.13
2023-05-14T11:41:21.679Z,20.10
2023-05-14T11:44:24.700Z,19.33
2023-05-14T11:47:29.930Z,21.52
2023-05-14T11:50:36.660Z,21.60
2023-05-14T11:53:39.406Z,20.27
2023-05-14T11:56:42.421Z,24.00
2023-05-14T11:59:45.998Z,19.88
2023-05-14T12:02:50.027Z,19.88
2023-05-14T12:06:00.575Z,24.10
2023-05-14T12:09:05.571Z,22.60
2023-05-14T12:12:12.467Z,24.10
2023-05-14T12:15:17.157Z,19.75
2023-05-14T12:18:24.495Z,25.52
2023-05-14T12:21:29.431Z,21.27
2023-05-14T12:24:32.397Z,20.08
2023-05-14T12:27:37.807Z,20.55
2023-05-14T12:30:41.360Z,20.42
2023-05-14T12:33:44.055Z,17.63
2023-05-14T12:36:46.794Z,17.90
2023-05-14T12:39:49.519Z,18.38
2023-05-14T12:42:52.239Z,17.92
2023-05-14T12:45:55.692Z,19.42
2023-05-14T12:48:58.508Z,21.40
2023-05-14T12:52:19.475Z,19.60
2023-05-14T12:55:23.991Z,18.90
2023-05-14T12:58:26.765Z,17.35
2023-05-14T13:01:29.643Z,19.60
2023-05-14T13:04:32.611Z,18.67
2023-05-14T13:07:36.402Z,17.37
2023-05-14T13:10:39.112Z,19.95
2023-05-14T13:13:41.928Z,19.75
2023-05-14T13:16:44.770Z,22.45
2023-05-14T13:19:47.472Z,20.38
2023-05-14T13:22:50.183Z,19.83
2023-05-14T13:25:52.933Z,16.10
2023-05-14T13:28:55.793Z,15.85
2023-05-14T13:31:58.776Z,15.70
2023-05-14T13:35:01.491Z,17.40
2023-05-14T13:38:04.262Z,16.20
2023-05-14T13:41:07.331Z,18.92
2023-05-14T13:44:10.190Z,16.60
2023-05-14T13:47:12.891Z,15.30
2023-05-14T13:50:15.718Z,12.20
2023-05-14T13:53:20.208Z,12.47
2023-05-14T13:56:23.023Z,13.00
2023-05-14T13:59:25.898Z,14.82
2023-05-14T14:02:28.713Z,12.95
2023-05-14T14:05:31.875Z,13.10
2023-05-14T14:08:34.707Z,13.47
2023-05-14T14:11:37.474Z,13.73
2023-05-14T14:14:40.220Z,16.05
2023-05-14T14:17:43.226Z,13.88
2023-05-14T14:20:46.209Z,16.83
2023-05-14T14:23:49.060Z,15.53
2023-05-14T14:26:51.819Z,14.85
2023-05-14T14:29:54.635Z,14.35
2023-05-14T14:32:57.441Z,12.85
2023-05-14T14:36:00.134Z,13.25
2023-05-14T14:39:02.891Z,15.87
2023-05-14T14:42:07.574Z,17.23
2023-05-14T14:45:11.099Z,17.95
2023-05-14T14:48:25.603Z,15.18
2023-05-14T14:51:28.456Z,20.98
2023-05-14T14:54:31.201Z,19.43
2023-05-14T14:57:33.911Z,18.00
2023-05-14T15:00:36.789Z,19.90
2023-05-14T15:03:39.612Z,17.83
2023-05-14T15:06:42.458Z,17.13
2023-05-14T15:09:45.203Z,15.50
2023-05-14T15:12:48.427Z,16.67
2023-05-14T15:15:52.682Z,19.70
2023-05-14T15:18:55.612Z,21.25
2023-05-14T15:21:58.760Z,14.88
2023-05-14T15:25:01.490Z,17.73
2023-05-14T15:28:06.519Z,19.65
2023-05-14T15:31:09.393Z,23.35
2023-05-14T15:34:12.145Z,17.48
2023-05-14T15:37:14.875Z,18.13
2023-05-14T15:40:19.624Z,16.83
2023-05-14T15:43:22.399Z,21.48
2023-05-14T15:46:25.851Z,19.00
2023-05-14T15:49:28.668Z,20.05
2023-05-14T15:52:31.775Z,17.35
2023-05-14T15:55:34.655Z,16.60
2023-05-14T15:58:37.434Z,14.20
2023-05-14T16:01:40.757Z,16.35
2023-05-14T16:04:45.393Z,15.68
2023-05-14T16:07:48.202Z,16.10
2023-05-14T16:10:50.945Z,16.03
2023-05-14T16:13:53.678Z,12.43
2023-05-14T16:16:56.465Z,14.30
2023-05-14T16:20:01.009Z,15.38
2023-05-14T16:23:04.056Z,14.95
2023-05-14T16:26:06.846Z,13.27
2023-05-14T16:29:09.748Z,13.13
2023-05-14T16:32:12.697Z,19.63
2023-05-14T16:35:16.913Z,14.80
2023-05-14T16:38:19.796Z,16.73
2023-05-14T16:41:22.538Z,17.17
2023-05-14T16:44:25.280Z,14.00
2023-05-14T16:47:28.055Z,16.42
2023-05-14T16:50:30.913Z,17.00
2023-05-14T16:53:33.665Z,19.58
2023-05-14T16:56:36.888Z,16.50
2023-05-14T16:59:39.685Z,22.65
2023-05-14T17:02:43.094Z,15.48
2023-05-14T17:05:46.164Z,17.13
2023-05-14T17:08:49.208Z,16.65
2023-05-14T17:11:51.934Z,18.77
2023-05-14T17:14:54.726Z,19.50
2023-05-14T17:17:57.756Z,20.13
2023-05-14T17:21:00.486Z,16.50
2023-05-14T17:24:03.282Z,16.17
2023-05-14T17:27:07.572Z,17.43
2023-05-14T17:30:10.805Z,18.92
2023-05-14T17:33:13.545Z,20.15
2023-05-14T17:36:16.346Z,20.40
2023-05-14T17:39:19.059Z,15.20
2023-05-14T17:42:21.765Z,17.50
2023-05-14T17:45:24.925Z,16.83
2023-05-14T17:48:28.155Z,19.77
2023-05-14T17:51:31.711Z,20.55
2023-05-14T17:54:34.503Z,18.35
2023-05-14T17:57:37.791Z,19.27
2023-05-14T18:00:40.915Z,24.80
2023-05-14T18:03:43.951Z,18.75
2023-05-14T18:06:46.780Z,16.58
2023-05-14T18:09:49.517Z,22.48
2023-05-14T18:12:52.429Z,19.87
2023-05-14T18:15:56.641Z,22.90
2023-05-14T18:19:02.905Z,20.95
2023-05-14T18:22:05.896Z,21.25
2023-05-14T18:25:09.755Z,20.52
2023-05-14T18:28:13.069Z,20.57
2023-05-14T18:31:16.184Z,22.40
2023-05-14T18:34:18.992Z,22.85
2023-05-14T18:37:21.748Z,24.88
2023-05-14T18:40:24.545Z,26.90
2023-05-14T18:43:27.669Z,23.87
2023-05-14T18:46:30.745Z,27.58
2023-05-14T18:49:33.613Z,23.15
2023-05-14T18:52:36.573Z,25.40
2023-05-14T18:55:39.883Z,22.38
2023-05-14T18:58:42.802Z,21.63
2023-05-14T19:01:45.887Z,17.13
2023-05-14T19:04:52.842Z,23.45
2023-05-14T19:07:57.153Z,23.67
2023-05-14T19:10:59.917Z,21.77
2023-05-14T19:14:03.008Z,19.33
2023-05-14T19:17:06.340Z,18.75
2023-05-14T19:20:09.855Z,25.65
2023-05-14T19:23:12.921Z,18.77
2023-05-14T19:26:16.023Z,21.85
2023-05-14T19:29:18.724Z,20.07
2023-05-14T19:32:21.739Z,20.65
2023-05-14T19:35:24.767Z,20.35
2023-05-14T19:38:27.765Z,17.90
2023-05-14T19:41:30.739Z,25.48
2023-05-14T19:44:33.850Z,18.70
2023-05-14T19:47:36.661Z,24.70
2023-05-14T19:50:39.444Z,20.55
2023-05-14T19:53:42.195Z,21.45
2023-05-14T19:56:45.118Z,25.42
2023-05-14T19:59:48.151Z,21.97
2023-05-14T20:02:51.039Z,24.10
2023-05-14T20:05:55.044Z,31.40
2023-05-14T20:08:57.808Z,24.15
2023-05-14T20:12:00.543Z,26.45
2023-05-14T20:15:04.291Z,26.67
2023-05-14T20:18:07.162Z,31.25
2023-05-14T20:21:10.232Z,26.60
2023-05-14T20:24:12.958Z,27.05
2023-05-14T20:27:15.768Z,26.25
2023-05-14T20:30:19.403Z,28.77
2023-05-14T20:33:22.200Z,30.77
2023-05-14T20:36:25.728Z,29.15
2023-05-14T20:39:28.432Z,30.08
2023-05-14T20:42:31.243Z,31.02
2023-05-14T20:45:34.010Z,30.53
2023-05-14T20:48:36.749Z,29.17
2023-05-14T20:51:39.579Z,31.40
2023-05-14T20:54:43.198Z,30.08
2023-05-14T20:57:45.945Z,30.95
2023-05-14T21:00:48.674Z,30.67
2023-05-14T21:03:51.478Z,31.55
2023-05-14T21:06:54.431Z,29.27
2023-05-14T21:09:57.225Z,35.97
2023-05-14T21:13:00.049Z,42.70
2023-05-14T21:16:03.139Z,36.93
2023-05-14T21:19:06.061Z,37.63
2023-05-14T21:22:08.916Z,38.03
2023-05-14T21:25:11.678Z,35.42
2023-05-14T21:28:14.442Z,39.53
2023-05-14T21:31:17.399Z,37.13
2023-05-14T21:34:20.700Z,38.05
2023-05-14T21:37:23.623Z,37.63
2023-05-14T21:40:26.336Z,32.75
2023-05-14T21:43:29.031Z,30.90
2023-05-14T21:46:32.189Z,30.40
2023-05-14T21:49:35.796Z,31.20
2023-05-14T21:52:38.742Z,29.95
2023-05-14T21:55:41.708Z,33.28
2023-05-14T21:58:44.821Z,32.28
2023-05-14T22:02:05.543Z,33.30
2023-05-14T22:05:09.612Z,30.70
2023-05-14T22:08:12.323Z,32.38
2023-05-14T22:11:15.077Z,33.40
2023-05-14T22:14:17.782Z,38.28
2023-05-14T22:17:20.599Z,46.20
2023-05-14T22:20:23.298Z,44.70
2023-05-14T22:23:25.961Z,47.05
2023-05-14T22:26:28.692Z,46.53
2023-05-14T22:29:31.383Z,44.28
2023-05-14T22:32:34.088Z,41.33
2023-05-14T22:35:36.865Z,43.05
2023-05-14T22:38:41.324Z,41.47
2023-05-14T22:41:44.132Z,34.35
2023-05-14T22:44:46.848Z,32.20
2023-05-14T22:47:49.717Z,33.63
2023-05-14T22:50:52.451Z,38.20
2023-05-14T22:53:55.264Z,35.45
2023-05-14T22:56:58.148Z,39.03
2023-05-14T23:00:01.016Z,33.67
2023-05-14T23:03:04.227Z,37.43
2023-05-14T23:06:07.227Z,41.00
2023-05-14T23:09:09.979Z,40.58
2023-05-14T23:12:12.713Z,38.22
2023-05-14T23:15:15.539Z,40.00
2023-05-14T23:18:18.357Z,43.50
2023-05-14T23:21:21.221Z,41.47
2023-05-14T23:24:24.070Z,44.60
2023-05-14T23:27:27.369Z,42.15
2023-05-14T23:30:30.100Z,38.90
2023-05-14T23:33:32.800Z,38.13
2023-05-14T23:36:35.938Z,37.20
2023-05-14T23:39:38.692Z,31.75
2023-05-14T23:42:42.122Z,31.20
2023-05-14T23:45:44.936Z,29.92
2023-05-14T23:48:47.733Z,28.33
2023-05-14T23:51:50.676Z,26.92
2023-05-14T23:54:53.703Z,30.80
2023-05-14T23:57:56.391Z,30.75
